Saint Joseph, MN

6:19 PM CDT on July 03, 2015 (GMT -0500)
Saint Johns University Campus | | Change Station
CLOSE
Current Station
Personal Weather Station
Location: Collegeville, MN
Elevation: 1200 ft
Nearby Weather Stations

Elev 1200 ft 45.58 °N, 94.39 °W | Updated 36 seconds ago

Mostly Cloudy
Mostly Cloudy
81.3 °F
Feels Like 84 °F
N
1.0
Wind Variable Wind from WNW
Gusts 4.0 mph

Today
High -- | Low -- °F
--% Chance of Precip.
Yesterday
High -- | Low -- °F
Precip. -- in
5:33 AM 9:09 PM
Waning Gibbous, 95% visible
Pressure 29.91 in
Visibility 6.0 miles
Clouds Mostly Cloudy 4000 ft
Mostly Cloudy 5000 ft
Heat Index 84 °F
Dew Point 68 °F
Humidity 65%
Rainfall 0.00 in
Snow Depth Not available.
UV 0.5 out of 12
Pollen 4.20 out of 12
Air Quality Not available.
Flu Activity Not available.
METAR KSTC 032253Z 23009KT 6SM HZ BKN040 BKN050 27/18 A2989 RMK AO2 SLP127 T02670183 $

More Conditions Fewer Conditions

Pressure 29.91 in
Visibility 6.0 miles
Clouds Mostly Cloudy 4000 ft
Mostly Cloudy 5000 ft
Heat Index 84 °F
Dew Point 68 °F
Humidity 65%
Rainfall 0.00 in
Snow Depth Not available.
UV 0.5 out of 12
Pollen 4.20 out of 12
Air Quality Not available.
Flu Activity Not available.
METAR KSTC 032253Z 23009KT 6SM HZ BKN040 BKN050 27/18 A2989 RMK AO2 SLP127 T02670183 $

More Conditions Fewer Conditions

10-Day Weather Forecast

×

Almanac

Astronomy

Jul. 03, 2015 Rise Set
Actual Time
Civil Twilight
Nautical Twilight
Astronomical Twilight
Moon
Length of Visible Light
Length of Day
Tomorrow will be .
, % of the Moon is Illuminated

Today's Extremes

State Highs State Lows

Community

WunderPhotos

Upload Photos

1,834,819 photos uploaded!

WunderBlogs® & News

Nearby

Air Quality

  Air Quality AQ Index Pollutant
Not available.

Snow Depth

Station Depth Elevation

Earthquake Activity

City Distance Mag. Time & Date
Minimum magnitude displayed is 2.5.

Coastal Water Temperatures

Place Temperature

Stations

Nearby Weather Stations

Station Location Temp. Windchill Dew Point Humidity Wind Precip. Elev Updated Type